Time,TemperatureF,DewpointF,PressureIn,WindDirection,WindDirectionDegrees,WindSpeedMPH,WindSpeedGustMPH,Humidity,HourlyPrecipIn,Conditions,Clouds,dailyrainin,SoftwareType,DateUTC
2013-04-19 00:00:00,65.3,65.3,29.90,East,99,0.0,0.0,100,0.00,,---,0.00,VWS V14.01,2013-04-19 04:00:00,
2013-04-19 00:10:00,65.3,65.3,29.90,East,99,0.0,0.0,100,0.00,,---,0.00,VWS V14.01,2013-04-19 04:10:00,
2013-04-19 00:20:00,65.3,65.3,29.91,East,95,0.0,0.0,100,0.00,,---,0.00,VWS V14.01,2013-04-19 04:20:00,
2013-04-19 00:30:00,65.3,65.3,29.90,East,95,0.0,0.0,100,0.00,,---,0.00,VWS V14.01,2013-04-19 04:30:00,
2013-04-19 00:40:00,65.3,65.3,29.90,East,95,0.0,0.0,100,0.00,,---,0.00,VWS V14.01,2013-04-19 04:40:00,
2013-04-19 00:50:00,65.3,65.3,29.89,East,95,0.0,0.0,100,0.00,,---,0.00,VWS V14.01,2013-04-19 04:50:00,
2013-04-19 01:00:00,65.5,65.5,29.89,East,95,0.0,0.0,100,0.00,,---,0.00,VWS V14.01,2013-04-19 05:00:00,
2013-04-19 01:10:00,65.6,65.6,29.89,East,93,0.0,3.0,100,0.00,,---,0.00,VWS V14.01,2013-04-19 05:10:00,
2013-04-19 01:20:00,65.8,65.8,29.88,ENE,65,0.0,9.0,100,0.00,,---,0.00,VWS V14.01,2013-04-19 05:20:00,
2013-04-19 01:30:00,66.1,66.1,29.86,East,90,0.0,2.0,100,0.00,,---,0.00,VWS V14.01,2013-04-19 05:30:00,
2013-04-19 01:40:00,66.3,66.3,29.86,ENE,64,0.0,2.0,100,0.00,,---,0.00,VWS V14.01,2013-04-19 05:40:00,
2013-04-19 01:50:00,66.1,66.1,29.85,ENE,65,2.0,3.0,100,0.00,,---,0.00,VWS V14.01,2013-04-19 05:50:00,
2013-04-19 02:00:00,66.1,66.1,29.84,SSE,152,0.0,2.0,100,0.00,,---,0.00,VWS V14.01,2013-04-19 06:00:00,
2013-04-19 02:10:00,66.3,66.3,29.84,SE,127,0.0,7.0,100,0.00,,---,0.00,VWS V14.01,2013-04-19 06:10:00,
2013-04-19 02:20:00,66.4,66.4,29.84,SSE,148,0.0,6.0,100,0.00,,---,0.00,VWS V14.01,2013-04-19 06:20:00,
2013-04-19 02:30:00,66.4,66.4,29.83,SE,145,0.0,6.0,100,0.00,,---,0.00,VWS V14.01,2013-04-19 06:30:00,
2013-04-19 02:40:00,66.6,66.6,29.83,SE,136,0.0,3.0,100,0.00,,---,0.00,VWS V14.01,2013-04-19 06:40:00,
2013-04-19 02:50:00,66.6,66.6,29.83,NNE,31,0.0,3.0,100,0.00,,---,0.00,VWS V14.01,2013-04-19 06:50:00,
2013-04-19 03:00:00,66.8,66.8,29.82,SE,134,0.0,1.0,100,0.00,,---,0.00,VWS V14.01,2013-04-19 07:00:00,
2013-04-19 03:10:00,66.8,66.8,29.82,ESE,121,0.0,0.0,100,0.00,,---,0.00,VWS V14.01,2013-04-19 07:10:00,
2013-04-19 03:20:00,66.9,66.9,29.81,ENE,73,0.0,8.0,100,0.00,,---,0.00,VWS V14.01,2013-04-19 07:20:00,
2013-04-19 03:30:00,66.9,66.9,29.81,SSE,167,0.0,6.0,100,0.00,,---,0.00,VWS V14.01,2013-04-19 07:30:00,
2013-04-19 03:40:00,67.1,67.1,29.81,SE,126,0.0,5.0,100,0.00,,---,0.00,VWS V14.01,2013-04-19 07:40:00,
2013-04-19 03:50:00,67.1,67.1,29.81,ENE,72,0.0,1.0,100,0.00,,---,0.00,VWS V14.01,2013-04-19 07:50:00,
2013-04-19 04:00:00,67.1,67.1,29.80,SE,143,0.0,5.0,100,0.00,,---,0.00,VWS V14.01,2013-04-19 08:00:00,
2013-04-19 04:10:00,67.1,67.1,29.80,ESE,114,0.0,1.0,100,0.00,,---,0.00,VWS V14.01,2013-04-19 08:10:00,
2013-04-19 04:20:00,67.3,67.3,29.79,NNE,23,0.0,6.0,100,0.00,,---,0.00,VWS V14.01,2013-04-19 08:20:00,
2013-04-19 04:30:00,67.3,67.3,29.78,East,90,0.0,5.0,100,0.00,,---,0.00,VWS V14.01,2013-04-19 08:30:00,
2013-04-19 04:40:00,67.4,67.4,29.78,ESE,107,0.0,3.0,100,0.00,,---,0.00,VWS V14.01,2013-04-19 08:40:00,
2013-04-19 04:50:00,67.4,67.4,29.79,ESE,102,0.0,6.0,100,0.00,,---,0.00,VWS V14.01,2013-04-19 08:50:00,
2013-04-19 05:00:00,67.4,67.4,29.78,ESE,112,0.0,4.0,100,0.00,,---,0.00,VWS V14.01,2013-04-19 09:00:00,
2013-04-19 05:10:00,67.6,67.6,29.78,SE,134,0.0,6.0,100,0.00,,---,0.00,VWS V14.01,2013-04-19 09:10:00,
2013-04-19 05:20:00,67.6,67.6,29.78,SSE,147,0.0,3.0,100,0.00,,---,0.00,VWS V14.01,2013-04-19 09:20:00,
2013-04-19 05:30:00,67.6,67.6,29.78,ESE,110,0.0,0.0,100,0.00,,---,0.00,VWS V14.01,2013-04-19 09:30:00,
2013-04-19 05:40:00,67.6,67.6,29.78,ENE,66,0.0,0.0,100,0.00,,---,0.00,VWS V14.01,2013-04-19 09:40:00,
2013-04-19 05:50:00,67.6,67.6,29.78,SE,143,0.0,5.0,100,0.00,,---,0.00,VWS V14.01,2013-04-19 09:50:00,
2013-04-19 06:00:00,67.8,67.8,29.78,ENE,68,0.0,0.0,100,0.00,,---,0.00,VWS V14.01,2013-04-19 10:00:00,
2013-04-19 06:10:00,67.8,67.8,29.78,ENE,72,0.0,0.0,100,0.00,,---,0.00,VWS V14.01,2013-04-19 10:10:00,
2013-04-19 06:20:00,67.9,67.9,29.78,East,100,0.0,1.0,100,0.00,,---,0.00,VWS V14.01,2013-04-19 10:20:00,
2013-04-19 06:30:00,67.9,67.9,29.78,ESE,104,0.0,0.0,100,0.00,,---,0.00,VWS V14.01,2013-04-19 10:30:00,
2013-04-19 06:40:00,67.9,67.9,29.78,SSE,155,0.0,3.0,100,0.00,,---,0.00,VWS V14.01,2013-04-19 10:40:00,
2013-04-19 06:50:00,67.9,67.9,29.78,ENE,68,0.0,5.0,100,0.00,,---,0.00,VWS V14.01,2013-04-19 10:50:00,
2013-04-19 07:00:00,67.9,67.9,29.78,ESE,110,0.0,5.0,100,0.00,,---,0.00,VWS V14.01,2013-04-19 11:00:00,
2013-04-19 07:10:00,68.1,68.1,29.78,South,174,0.0,3.0,100,0.00,,---,0.00,VWS V14.01,2013-04-19 11:10:00,
2013-04-19 07:20:00,68.3,68.3,29.78,SE,126,0.0,3.0,100,0.00,,---,0.00,VWS V14.01,2013-04-19 11:20:00,
2013-04-19 07:30:00,68.3,68.3,29.79,NNE,28,0.0,1.0,100,0.00,,---,0.00,VWS V14.01,2013-04-19 11:30:00,
2013-04-19 07:40:00,68.3,68.3,29.79,SSW,202,0.0,4.0,100,0.00,,---,0.00,VWS V14.01,2013-04-19 11:40:00,
2013-04-19 07:50:00,68.4,68.4,29.78,East,80,0.0,3.0,100,0.00,,---,0.00,VWS V14.01,2013-04-19 11:50:00,
2013-04-19 08:00:00,68.4,68.4,29.78,NNW,328,0.0,4.0,100,0.00,,---,0.00,VWS V14.01,2013-04-19 12:00:00,
2013-04-19 08:10:00,68.6,68.6,29.78,NE,51,0.0,1.0,100,0.00,,---,0.00,VWS V14.01,2013-04-19 12:10:00,
2013-04-19 08:20:00,68.8,68.8,29.79,East,86,0.0,5.0,100,0.00,,---,0.00,VWS V14.01,2013-04-19 12:20:00,
2013-04-19 08:30:00,68.9,68.9,29.79,SSE,148,0.0,6.0,100,0.00,,---,0.00,VWS V14.01,2013-04-19 12:30:00,
2013-04-19 08:40:00,69.1,69.1,29.79,SSE,152,0.0,5.0,100,0.00,,---,0.00,VWS V14.01,2013-04-19 12:40:00,
2013-04-19 08:50:00,69.4,69.4,29.78,NE,42,0.0,6.0,100,0.00,,---,0.00,VWS V14.01,2013-04-19 12:50:00,
2013-04-19 09:00:00,69.9,69.9,29.78,SSE,150,0.0,3.0,100,0.00,,---,0.00,VWS V14.01,2013-04-19 13:00:00,
2013-04-19 09:10:00,70.6,70.3,29.78,SSE,162,0.0,1.0,99,0.00,,---,0.00,VWS V14.01,2013-04-19 13:10:00,
2013-04-19 09:20:00,70.9,70.0,29.78,ESE,102,1.0,3.0,97,0.00,,---,0.00,VWS V14.01,2013-04-19 13:20:00,
2013-04-19 09:30:00,71.3,70.1,29.78,South,186,0.0,4.0,96,0.00,,---,0.00,VWS V14.01,2013-04-19 13:30:00,
2013-04-19 09:40:00,72.0,69.9,29.78,SSE,148,0.0,6.0,93,0.00,,---,0.00,VWS V14.01,2013-04-19 13:40:00,
2013-04-19 09:50:00,72.7,70.2,29.78,SSE,160,0.0,7.0,92,0.00,,---,0.00,VWS V14.01,2013-04-19 13:50:00,
2013-04-19 10:00:00,72.8,70.3,29.78,South,184,0.0,7.0,92,0.00,,---,0.00,VWS V14.01,2013-04-19 14:00:00,
2013-04-19 10:10:00,73.9,71.1,29.78,SSE,148,0.0,9.0,91,0.00,,---,0.00,VWS V14.01,2013-04-19 14:10:00,
2013-04-19 10:20:00,74.2,71.1,29.78,ESE,121,0.0,6.0,90,0.00,,---,0.00,VWS V14.01,2013-04-19 14:20:00,
2013-04-19 10:30:00,74.4,71.3,29.77,SE,140,0.0,8.0,90,0.00,,---,0.00,VWS V14.01,2013-04-19 14:30:00,
2013-04-19 10:40:00,74.2,71.1,29.77,SE,133,1.0,11.0,90,0.00,,---,0.00,VWS V14.01,2013-04-19 14:40:00,
2013-04-19 10:50:00,74.0,71.2,29.77,South,179,0.0,7.0,91,0.00,,---,0.00,VWS V14.01,2013-04-19 14:50:00,
2013-04-19 11:00:00,74.2,71.4,29.77,SSE,162,0.0,5.0,91,0.00,,---,0.00,VWS V14.01,2013-04-19 15:00:00,
2013-04-19 11:10:00,74.6,71.5,29.77,SSE,154,0.0,5.0,90,0.00,,---,0.00,VWS V14.01,2013-04-19 15:10:00,
2013-04-19 11:20:00,74.6,71.5,29.76,SSE,162,0.0,7.0,90,0.00,,---,0.00,VWS V14.01,2013-04-19 15:20:00,
2013-04-19 11:30:00,74.6,71.2,29.76,SSE,157,0.0,7.0,89,0.00,,---,0.00,VWS V14.01,2013-04-19 15:30:00,
2013-04-19 11:40:00,74.6,71.5,29.76,SE,144,5.0,7.0,90,0.00,,---,0.00,VWS V14.01,2013-04-19 15:40:00,
2013-04-19 11:50:00,75.1,71.6,29.76,SSE,151,0.0,6.0,89,0.00,,---,0.00,VWS V14.01,2013-04-19 15:50:00,
2013-04-19 12:00:00,76.0,71.9,29.75,ESE,109,0.0,6.0,87,0.00,,---,0.00,VWS V14.01,2013-04-19 16:00:00,
2013-04-19 12:10:00,76.7,72.5,29.75,SSE,158,0.0,5.0,87,0.00,,---,0.00,VWS V14.01,2013-04-19 16:10:00,
2013-04-19 12:20:00,77.2,72.0,29.74,SE,127,3.0,8.0,84,0.00,,---,0.00,VWS V14.01,2013-04-19 16:20:00,
2013-04-19 12:30:00,77.9,72.3,29.72,North,6,0.0,8.0,83,0.00,,---,0.00,VWS V14.01,2013-04-19 16:30:00,
2013-04-19 12:40:00,78.5,72.2,29.72,SSE,150,4.0,7.0,81,0.00,,---,0.00,VWS V14.01,2013-04-19 16:40:00,
2013-04-19 12:50:00,78.3,71.6,29.72,NE,47,0.0,11.0,80,0.00,,---,0.00,VWS V14.01,2013-04-19 16:50:00,
2013-04-19 13:00:00,78.6,71.9,29.71,East,99,1.0,11.0,80,0.00,,---,0.00,VWS V14.01,2013-04-19 17:00:00,
2013-04-19 13:10:00,79.6,72.1,29.71,SSE,161,3.0,12.0,78,0.00,,---,0.00,VWS V14.01,2013-04-19 17:10:00,
2013-04-19 13:20:00,79.8,72.3,29.69,SSE,165,2.0,11.0,78,0.00,,---,0.00,VWS V14.01,2013-04-19 17:20:00,
2013-04-19 13:30:00,79.8,72.7,29.69,NE,45,5.0,6.0,79,0.00,,---,0.00,VWS V14.01,2013-04-19 17:30:00,
2013-04-19 13:40:00,80.5,72.2,29.69,WSW,248,7.0,11.0,76,0.00,,---,0.00,VWS V14.01,2013-04-19 17:40:00,
2013-04-19 13:50:00,80.5,72.6,29.67,ENE,58,7.0,13.0,77,0.00,,---,0.00,VWS V14.01,2013-04-19 17:50:00,
2013-04-19 14:00:00,80.1,71.9,29.67,South,175,2.0,11.0,76,0.00,,---,0.00,VWS V14.01,2013-04-19 18:00:00,
2013-04-19 14:10:00,80.1,72.2,29.67,ESE,109,4.0,10.0,77,0.00,,---,0.00,VWS V14.01,2013-04-19 18:10:00,
2013-04-19 14:20:00,80.5,73.0,29.66,South,176,0.0,11.0,78,0.00,,---,0.00,VWS V14.01,2013-04-19 18:20:00,
2013-04-19 14:30:00,80.5,72.2,29.65,SSW,195,2.0,12.0,76,0.00,,---,0.00,VWS V14.01,2013-04-19 18:30:00,
2013-04-19 14:40:00,80.9,72.6,29.65,East,85,7.0,9.0,76,0.00,,---,0.00,VWS V14.01,2013-04-19 18:40:00,
2013-04-19 14:50:00,81.1,72.4,29.64,NE,55,0.0,7.0,75,0.00,,---,0.00,VWS V14.01,2013-04-19 18:50:00,
2013-04-19 15:00:00,80.9,72.2,29.63,ESE,109,0.0,12.0,75,0.00,,---,0.00,VWS V14.01,2013-04-19 19:00:00,
2013-04-19 15:10:00,81.1,72.4,29.63,SSE,165,1.0,8.0,75,0.00,,---,0.00,VWS V14.01,2013-04-19 19:10:00,
2013-04-19 15:20:00,81.8,72.7,29.62,SE,134,2.0,7.0,74,0.00,,---,0.00,VWS V14.01,2013-04-19 19:20:00,
2013-04-19 15:30:00,82.2,73.1,29.62,SSW,200,2.0,6.0,74,0.00,,---,0.00,VWS V14.01,2013-04-19 19:30:00,
2013-04-19 15:40:00,82.2,72.7,29.62,SSE,150,1.0,11.0,73,0.00,,---,0.00,VWS V14.01,2013-04-19 19:40:00,
2013-04-19 15:50:00,82.0,72.9,29.61,SSW,199,2.0,10.0,74,0.00,,---,0.00,VWS V14.01,2013-04-19 19:50:00,
2013-04-19 16:00:00,81.6,72.9,29.59,SE,137,5.0,16.0,75,0.00,,---,0.00,VWS V14.01,2013-04-19 20:00:00,
2013-04-19 16:10:00,81.6,73.3,29.59,South,175,4.0,17.0,76,0.00,,---,0.00,VWS V14.01,2013-04-19 20:10:00,
2013-04-19 16:20:00,81.4,73.1,29.59,South,185,5.0,11.0,76,0.00,,---,0.00,VWS V14.01,2013-04-19 20:20:00,
2013-04-19 16:30:00,80.9,73.0,29.59,SSE,164,2.0,12.0,77,0.00,,---,0.00,VWS V14.01,2013-04-19 20:30:00,
2013-04-19 16:40:00,81.1,73.2,29.59,SSE,154,0.0,10.0,77,0.00,,---,0.00,VWS V14.01,2013-04-19 20:40:00,
2013-04-19 16:50:00,81.1,72.8,29.59,SSE,155,0.0,14.0,76,0.00,,---,0.00,VWS V14.01,2013-04-19 20:50:00,
2013-04-19 17:00:00,81.1,72.0,29.59,SE,141,5.0,12.0,74,0.00,,---,0.00,VWS V14.01,2013-04-19 21:00:00,
2013-04-19 17:10:00,81.1,71.6,29.59,SSE,162,1.0,12.0,73,0.00,,---,0.00,VWS V14.01,2013-04-19 21:10:00,
2013-04-19 17:20:00,81.1,71.2,29.58,SE,126,1.0,10.0,72,0.00,,---,0.00,VWS V14.01,2013-04-19 21:20:00,
2013-04-19 17:30:00,81.1,70.8,29.57,North,0,7.0,12.0,71,0.00,,---,0.00,VWS V14.01,2013-04-19 21:30:00,
2013-04-19 17:40:00,80.9,71.4,29.57,SE,127,2.0,10.0,73,0.00,,---,0.00,VWS V14.01,2013-04-19 21:40:00,
2013-04-19 17:50:00,80.7,70.8,29.58,SSE,160,0.0,12.0,72,0.00,,---,0.00,VWS V14.01,2013-04-19 21:50:00,
2013-04-19 18:00:00,80.3,70.5,29.58,South,181,3.0,12.0,72,0.00,,---,0.00,VWS V14.01,2013-04-19 22:00:00,
2013-04-19 18:10:00,79.9,70.9,29.58,SSE,155,0.0,16.0,74,0.00,,---,0.00,VWS V14.01,2013-04-19 22:10:00,
2013-04-19 18:20:00,79.2,72.1,29.58,SSE,150,0.0,8.0,79,0.00,,---,0.00,VWS V14.01,2013-04-19 22:20:00,
2013-04-19 18:30:00,78.6,71.6,29.60,SE,137,3.0,10.0,79,0.00,,---,0.00,VWS V14.01,2013-04-19 22:30:00,
2013-04-19 18:40:00,78.1,70.3,29.60,South,174,0.0,11.0,77,0.00,,---,0.00,VWS V14.01,2013-04-19 22:40:00,
2013-04-19 18:50:00,77.9,70.5,29.61,ESE,109,0.0,12.0,78,0.00,,---,0.00,VWS V14.01,2013-04-19 22:50:00,
2013-04-19 19:00:00,74.0,71.5,29.67,WNW,295,3.0,9.0,92,0.10,,---,0.10,VWS V14.01,2013-04-19 23:00:00,
2013-04-19 19:10:00,69.6,69.6,29.67,WNW,302,0.0,6.0,100,0.11,,---,0.11,VWS V14.01,2013-04-19 23:10:00,
2013-04-19 19:20:00,67.8,67.8,29.65,SE,141,0.0,5.0,100,0.12,,---,0.12,VWS V14.01,2013-04-19 23:20:00,
2013-04-19 19:30:00,66.8,66.8,29.66,SW,227,0.0,0.0,100,0.12,,---,0.12,VWS V14.01,2013-04-19 23:30:00,
2013-04-19 19:40:00,66.3,66.3,29.66,SW,227,0.0,3.0,100,0.13,,---,0.13,VWS V14.01,2013-04-19 23:40:00,
2013-04-19 19:50:00,66.0,66.0,29.66,SW,227,0.0,0.0,100,0.13,,---,0.13,VWS V14.01,2013-04-19 23:50:00,
2013-04-19 20:00:00,65.8,65.8,29.66,SW,227,0.0,0.0,100,0.15,,---,0.15,VWS V14.01,2013-04-20 00:00:00,
2013-04-19 20:10:00,65.6,65.6,29.66,SE,144,0.0,8.0,100,0.11,,---,0.21,VWS V14.01,2013-04-20 00:10:00,
2013-04-19 20:20:00,65.6,65.6,29.67,SSE,162,0.0,6.0,100,0.12,,---,0.23,VWS V14.01,2013-04-20 00:20:00,
2013-04-19 20:30:00,65.6,65.6,29.67,ENE,66,0.0,7.0,100,0.13,,---,0.25,VWS V14.01,2013-04-20 00:30:00,
2013-04-19 20:40:00,65.5,65.5,29.67,SE,127,0.0,0.0,100,0.15,,---,0.27,VWS V14.01,2013-04-20 00:40:00,
2013-04-19 20:50:00,65.3,65.3,29.67,SE,128,0.0,0.0,100,0.14,,---,0.27,VWS V14.01,2013-04-20 00:50:00,
2013-04-19 21:00:00,65.2,65.2,29.68,West,275,0.0,1.0,100,0.15,,---,0.28,VWS V14.01,2013-04-20 01:00:00,
2013-04-19 21:10:00,65.2,65.2,29.68,WSW,247,0.0,0.0,100,0.14,,---,0.29,VWS V14.01,2013-04-20 01:10:00,
2013-04-19 21:20:00,65.0,65.0,29.68,WSW,246,0.0,0.0,100,0.08,,---,0.29,VWS V14.01,2013-04-20 01:20:00,
2013-04-19 21:30:00,65.0,65.0,29.67,WSW,250,0.0,0.0,100,0.06,,---,0.29,VWS V14.01,2013-04-20 01:30:00,
2013-04-19 21:40:00,64.8,64.8,29.67,WSW,250,0.0,0.0,100,0.04,,---,0.29,VWS V14.01,2013-04-20 01:40:00,
2013-04-19 21:50:00,64.8,64.8,29.68,SSW,208,0.0,0.0,100,0.03,,---,0.30,VWS V14.01,2013-04-20 01:50:00,
2013-04-19 22:00:00,64.8,64.8,29.68,SSW,208,0.0,0.0,100,0.04,,---,0.31,VWS V14.01,2013-04-20 02:00:00,
2013-04-19 22:10:00,64.8,64.8,29.68,East,89,0.0,0.0,100,0.03,,---,0.31,VWS V14.01,2013-04-20 02:10:00,
2013-04-19 22:20:00,64.8,64.8,29.67,SSE,160,0.0,2.0,100,0.02,,---,0.31,VWS V14.01,2013-04-20 02:20:00,
2013-04-19 22:30:00,65.0,65.0,29.66,ESE,112,0.0,2.0,100,0.03,,---,0.32,VWS V14.01,2013-04-20 02:30:00,
2013-04-19 22:40:00,65.0,65.0,29.66,East,97,0.0,0.0,100,0.04,,---,0.33,VWS V14.01,2013-04-20 02:40:00,
2013-04-19 22:50:00,65.0,65.0,29.66,East,97,0.0,0.0,100,0.04,,---,0.33,VWS V14.01,2013-04-20 02:50:00,
2013-04-19 23:00:00,65.2,65.2,29.65,ENE,59,0.0,1.0,100,0.04,,---,0.34,VWS V14.01,2013-04-20 03:00:00,
2013-04-19 23:10:00,65.2,65.2,29.65,ENE,59,0.0,0.0,100,0.03,,---,0.34,VWS V14.01,2013-04-20 03:10:00,
2013-04-19 23:20:00,65.2,65.2,29.63,ENE,65,0.0,0.0,100,0.03,,---,0.34,VWS V14.01,2013-04-20 03:20:00,
2013-04-19 23:30:00,65.2,65.2,29.64,ENE,65,0.0,0.0,100,0.03,,---,0.34,VWS V14.01,2013-04-20 03:30:00,
2013-04-19 23:40:00,65.2,65.2,29.64,ENE,65,0.0,0.0,100,0.02,,---,0.34,VWS V14.01,2013-04-20 03:40:00,
2013-04-19 23:50:00,65.2,65.2,29.66,ENE,65,0.0,0.0,100,0.01,,---,0.34,VWS V14.01,2013-04-20 03:50:00,